sensor_id;sensor_type;location;lat;lon;timestamp;P1;durP1;ratioP1;P2;durP2;ratioP2
78648;SDS011;67962;47.310;9.642;2023-04-21T00:00:56;3.83;;;2.55;;
78648;SDS011;67962;47.310;9.642;2023-04-21T00:03:24;2.92;;;2.25;;
78648;SDS011;67962;47.310;9.642;2023-04-21T00:05:51;2.95;;;2.17;;
78648;SDS011;67962;47.310;9.642;2023-04-21T00:08:20;3.65;;;2.60;;
78648;SDS011;67962;47.310;9.642;2023-04-21T00:10:46;5.40;;;2.70;;
78648;SDS011;67962;47.310;9.642;2023-04-21T00:13:12;4.25;;;2.53;;
78648;SDS011;67962;47.310;9.642;2023-04-21T00:15:37;3.60;;;2.83;;
78648;SDS011;67962;47.310;9.642;2023-04-21T00:18:03;4.20;;;2.67;;
78648;SDS011;67962;47.310;9.642;2023-04-21T00:20:30;3.45;;;2.60;;
78648;SDS011;67962;47.310;9.642;2023-04-21T00:22:56;4.25;;;2.80;;
78648;SDS011;67962;47.310;9.642;2023-04-21T00:25:23;4.47;;;2.88;;
78648;SDS011;67962;47.310;9.642;2023-04-21T00:27:49;3.63;;;2.85;;
78648;SDS011;67962;47.310;9.642;2023-04-21T00:30:15;3.40;;;2.70;;
78648;SDS011;67962;47.310;9.642;2023-04-21T00:32:41;4.57;;;3.20;;
78648;SDS011;67962;47.310;9.642;2023-04-21T00:35:07;4.38;;;3.00;;
78648;SDS011;67962;47.310;9.642;2023-04-21T00:37:33;4.30;;;2.85;;
78648;SDS011;67962;47.310;9.642;2023-04-21T00:39:59;4.57;;;2.92;;
78648;SDS011;67962;47.310;9.642;2023-04-21T00:42:25;5.18;;;3.20;;
78648;SDS011;67962;47.310;9.642;2023-04-21T00:44:50;3.90;;;2.75;;
78648;SDS011;67962;47.310;9.642;2023-04-21T00:47:16;4.90;;;3.40;;
78648;SDS011;67962;47.310;9.642;2023-04-21T00:49:43;4.40;;;3.03;;
78648;SDS011;67962;47.310;9.642;2023-04-21T00:52:09;6.88;;;3.30;;
78648;SDS011;67962;47.310;9.642;2023-04-21T00:54:36;4.60;;;2.95;;
78648;SDS011;67962;47.310;9.642;2023-04-21T00:57:02;7.10;;;3.90;;
78648;SDS011;67962;47.310;9.642;2023-04-21T00:59:29;5.25;;;3.42;;
78648;SDS011;67962;47.310;9.642;2023-04-21T01:01:54;4.82;;;3.00;;
78648;SDS011;67962;47.310;9.642;2023-04-21T01:04:20;4.43;;;2.92;;
78648;SDS011;67962;47.310;9.642;2023-04-21T01:06:46;3.70;;;2.90;;
78648;SDS011;67962;47.310;9.642;2023-04-21T01:09:12;4.07;;;2.75;;
78648;SDS011;67962;47.310;9.642;2023-04-21T01:11:38;3.65;;;2.90;;
78648;SDS011;67962;47.310;9.642;2023-04-21T01:14:04;3.25;;;2.67;;
78648;SDS011;67962;47.310;9.642;2023-04-21T01:16:30;4.13;;;2.97;;
78648;SDS011;67962;47.310;9.642;2023-04-21T01:18:56;9.05;;;3.22;;
78648;SDS011;67962;47.310;9.642;2023-04-21T01:21:23;5.85;;;3.40;;
78648;SDS011;67962;47.310;9.642;2023-04-21T01:23:49;5.28;;;3.47;;
78648;SDS011;67962;47.310;9.642;2023-04-21T01:26:18;7.47;;;3.42;;
78648;SDS011;67962;47.310;9.642;2023-04-21T01:28:45;4.75;;;3.20;;
78648;SDS011;67962;47.310;9.642;2023-04-21T01:31:13;5.72;;;3.60;;
78648;SDS011;67962;47.310;9.642;2023-04-21T01:33:39;4.13;;;3.00;;
78648;SDS011;67962;47.310;9.642;2023-04-21T01:36:06;5.15;;;3.53;;
78648;SDS011;67962;47.310;9.642;2023-04-21T01:38:32;5.90;;;3.30;;
78648;SDS011;67962;47.310;9.642;2023-04-21T01:40:58;9.77;;;3.97;;
78648;SDS011;67962;47.310;9.642;2023-04-21T01:43:24;8.40;;;3.78;;
78648;SDS011;67962;47.310;9.642;2023-04-21T01:45:50;5.93;;;3.70;;
78648;SDS011;67962;47.310;9.642;2023-04-21T01:48:17;5.75;;;3.45;;
78648;SDS011;67962;47.310;9.642;2023-04-21T01:50:43;7.47;;;3.67;;
78648;SDS011;67962;47.310;9.642;2023-04-21T01:53:08;5.45;;;3.58;;
78648;SDS011;67962;47.310;9.642;2023-04-21T01:55:34;5.00;;;3.15;;
78648;SDS011;67962;47.310;9.642;2023-04-21T01:58:00;5.63;;;3.67;;
78648;SDS011;67962;47.310;9.642;2023-04-21T02:00:25;4.28;;;3.10;;
78648;SDS011;67962;47.310;9.642;2023-04-21T02:02:51;5.72;;;3.40;;
78648;SDS011;67962;47.310;9.642;2023-04-21T02:05:17;9.63;;;3.95;;
78648;SDS011;67962;47.310;9.642;2023-04-21T02:07:44;5.00;;;3.60;;
78648;SDS011;67962;47.310;9.642;2023-04-21T02:10:10;7.40;;;4.15;;
78648;SDS011;67962;47.310;9.642;2023-04-21T02:12:36;6.05;;;3.95;;
78648;SDS011;67962;47.310;9.642;2023-04-21T02:15:03;6.63;;;4.00;;
78648;SDS011;67962;47.310;9.642;2023-04-21T02:17:29;5.20;;;3.50;;
78648;SDS011;67962;47.310;9.642;2023-04-21T02:19:55;8.68;;;3.60;;
78648;SDS011;67962;47.310;9.642;2023-04-21T02:22:21;4.95;;;3.58;;
78648;SDS011;67962;47.310;9.642;2023-04-21T02:24:48;4.78;;;3.75;;
78648;SDS011;67962;47.310;9.642;2023-04-21T02:27:14;7.72;;;3.60;;
78648;SDS011;67962;47.310;9.642;2023-04-21T02:29:40;6.72;;;3.90;;
78648;SDS011;67962;47.310;9.642;2023-04-21T02:32:06;5.38;;;3.92;;
78648;SDS011;67962;47.310;9.642;2023-04-21T02:34:32;10.93;;;4.05;;
78648;SDS011;67962;47.310;9.642;2023-04-21T02:36:57;5.38;;;3.72;;
78648;SDS011;67962;47.310;9.642;2023-04-21T02:39:23;5.60;;;3.70;;
78648;SDS011;67962;47.310;9.642;2023-04-21T02:41:49;5.75;;;4.07;;
78648;SDS011;67962;47.310;9.642;2023-04-21T02:44:15;5.72;;;3.55;;
78648;SDS011;67962;47.310;9.642;2023-04-21T02:46:41;5.57;;;3.75;;
78648;SDS011;67962;47.310;9.642;2023-04-21T02:49:07;5.63;;;3.88;;
78648;SDS011;67962;47.310;9.642;2023-04-21T02:51:33;7.00;;;3.67;;
78648;SDS011;67962;47.310;9.642;2023-04-21T02:53:59;5.28;;;3.50;;
78648;SDS011;67962;47.310;9.642;2023-04-21T02:56:25;5.65;;;3.88;;
78648;SDS011;67962;47.310;9.642;2023-04-21T02:58:51;6.68;;;4.07;;
78648;SDS011;67962;47.310;9.642;2023-04-21T03:01:16;6.03;;;4.15;;
78648;SDS011;67962;47.310;9.642;2023-04-21T03:03:42;8.20;;;4.32;;
78648;SDS011;67962;47.310;9.642;2023-04-21T03:06:08;5.32;;;3.88;;
78648;SDS011;67962;47.310;9.642;2023-04-21T03:08:34;5.20;;;3.55;;
78648;SDS011;67962;47.310;9.642;2023-04-21T03:11:00;6.28;;;3.80;;
78648;SDS011;67962;47.310;9.642;2023-04-21T03:13:25;4.97;;;3.47;;
78648;SDS011;67962;47.310;9.642;2023-04-21T03:15:51;4.70;;;3.38;;
78648;SDS011;67962;47.310;9.642;2023-04-21T03:18:17;6.10;;;3.88;;
78648;SDS011;67962;47.310;9.642;2023-04-21T03:20:43;4.72;;;3.35;;
78648;SDS011;67962;47.310;9.642;2023-04-21T03:23:09;7.07;;;3.97;;
78648;SDS011;67962;47.310;9.642;2023-04-21T03:25:34;6.80;;;3.75;;
78648;SDS011;67962;47.310;9.642;2023-04-21T03:28:02;5.88;;;4.05;;
78648;SDS011;67962;47.310;9.642;2023-04-21T03:30:27;6.10;;;4.13;;
78648;SDS011;67962;47.310;9.642;2023-04-21T03:32:53;5.25;;;3.63;;
78648;SDS011;67962;47.310;9.642;2023-04-21T03:35:22;6.38;;;4.00;;
78648;SDS011;67962;47.310;9.642;2023-04-21T03:37:48;5.80;;;3.92;;
78648;SDS011;67962;47.310;9.642;2023-04-21T03:40:14;5.88;;;3.95;;
78648;SDS011;67962;47.310;9.642;2023-04-21T03:42:40;8.30;;;4.03;;
78648;SDS011;67962;47.310;9.642;2023-04-21T03:45:06;6.38;;;3.92;;
78648;SDS011;67962;47.310;9.642;2023-04-21T03:47:33;6.57;;;3.97;;
78648;SDS011;67962;47.310;9.642;2023-04-21T03:50:01;5.68;;;3.83;;
78648;SDS011;67962;47.310;9.642;2023-04-21T03:52:28;5.72;;;3.65;;
78648;SDS011;67962;47.310;9.642;2023-04-21T03:54:54;4.90;;;3.50;;
78648;SDS011;67962;47.310;9.642;2023-04-21T03:57:20;5.60;;;3.58;;
78648;SDS011;67962;47.310;9.642;2023-04-21T03:59:46;6.85;;;4.05;;
78648;SDS011;67962;47.310;9.642;2023-04-21T04:02:11;5.53;;;3.80;;
78648;SDS011;67962;47.310;9.642;2023-04-21T04:04:37;7.13;;;4.10;;
78648;SDS011;67962;47.310;9.642;2023-04-21T04:07:03;5.10;;;3.70;;
78648;SDS011;67962;47.310;9.642;2023-04-21T04:09:29;7.40;;;4.07;;
78648;SDS011;67962;47.310;9.642;2023-04-21T04:11:54;6.03;;;3.75;;
78648;SDS011;67962;47.310;9.642;2023-04-21T04:14:20;5.10;;;3.65;;
78648;SDS011;67962;47.310;9.642;2023-04-21T04:16:45;7.03;;;4.13;;
78648;SDS011;67962;47.310;9.642;2023-04-21T04:19:11;8.90;;;4.25;;
78648;SDS011;67962;47.310;9.642;2023-04-21T04:21:37;5.70;;;3.47;;
78648;SDS011;67962;47.310;9.642;2023-04-21T04:24:03;8.68;;;3.88;;
78648;SDS011;67962;47.310;9.642;2023-04-21T04:26:29;11.32;;;4.55;;
78648;SDS011;67962;47.310;9.642;2023-04-21T04:28:57;5.95;;;3.92;;
78648;SDS011;67962;47.310;9.642;2023-04-21T04:31:26;7.30;;;4.38;;
78648;SDS011;67962;47.310;9.642;2023-04-21T04:33:55;7.30;;;3.97;;
78648;SDS011;67962;47.310;9.642;2023-04-21T04:36:21;7.35;;;4.60;;
78648;SDS011;67962;47.310;9.642;2023-04-21T04:38:48;7.63;;;4.72;;
78648;SDS011;67962;47.310;9.642;2023-04-21T04:41:14;7.30;;;4.60;;
78648;SDS011;67962;47.310;9.642;2023-04-21T04:43:40;6.55;;;3.95;;
78648;SDS011;67962;47.310;9.642;2023-04-21T04:46:07;4.20;;;3.15;;
78648;SDS011;67962;47.310;9.642;2023-04-21T04:48:37;5.90;;;3.70;;
78648;SDS011;67962;47.310;9.642;2023-04-21T04:51:03;5.30;;;3.50;;
78648;SDS011;67962;47.310;9.642;2023-04-21T04:53:30;5.75;;;3.78;;
78648;SDS011;67962;47.310;9.642;2023-04-21T04:55:56;6.18;;;4.10;;
78648;SDS011;67962;47.310;9.642;2023-04-21T04:58:23;5.57;;;3.80;;
78648;SDS011;67962;47.310;9.642;2023-04-21T05:00:49;6.75;;;3.80;;
78648;SDS011;67962;47.310;9.642;2023-04-21T05:03:15;5.50;;;3.53;;
78648;SDS011;67962;47.310;9.642;2023-04-21T05:05:41;6.65;;;3.92;;
78648;SDS011;67962;47.310;9.642;2023-04-21T05:08:06;4.70;;;3.30;;
78648;SDS011;67962;47.310;9.642;2023-04-21T05:10:32;6.18;;;3.60;;
78648;SDS011;67962;47.310;9.642;2023-04-21T05:12:58;5.38;;;3.50;;
78648;SDS011;67962;47.310;9.642;2023-04-21T05:15:24;8.20;;;3.72;;
78648;SDS011;67962;47.310;9.642;2023-04-21T05:17:50;8.50;;;3.42;;
78648;SDS011;67962;47.310;9.642;2023-04-21T05:20:15;7.75;;;3.50;;
78648;SDS011;67962;47.310;9.642;2023-04-21T05:22:41;5.00;;;3.30;;
78648;SDS011;67962;47.310;9.642;2023-04-21T05:25:08;4.68;;;3.25;;
78648;SDS011;67962;47.310;9.642;2023-04-21T05:27:35;6.40;;;3.65;;
78648;SDS011;67962;47.310;9.642;2023-04-21T05:30:01;5.57;;;3.45;;
78648;SDS011;67962;47.310;9.642;2023-04-21T05:32:26;6.35;;;3.50;;
78648;SDS011;67962;47.310;9.642;2023-04-21T05:34:53;4.85;;;3.15;;
78648;SDS011;67962;47.310;9.642;2023-04-21T05:37:19;4.53;;;2.88;;
78648;SDS011;67962;47.310;9.642;2023-04-21T05:39:44;4.50;;;3.03;;
78648;SDS011;67962;47.310;9.642;2023-04-21T05:42:10;4.03;;;2.80;;
78648;SDS011;67962;47.310;9.642;2023-04-21T05:44:36;4.65;;;2.97;;
78648;SDS011;67962;47.310;9.642;2023-04-21T05:47:05;6.85;;;3.80;;
78648;SDS011;67962;47.310;9.642;2023-04-21T05:49:32;6.15;;;4.05;;
78648;SDS011;67962;47.310;9.642;2023-04-21T05:51:57;5.57;;;3.42;;
78648;SDS011;67962;47.310;9.642;2023-04-21T05:54:23;11.15;;;4.18;;
78648;SDS011;67962;47.310;9.642;2023-04-21T05:56:49;5.22;;;3.15;;
78648;SDS011;67962;47.310;9.642;2023-04-21T05:59:15;3.72;;;2.70;;
78648;SDS011;67962;47.310;9.642;2023-04-21T06:01:41;4.28;;;2.67;;
78648;SDS011;67962;47.310;9.642;2023-04-21T06:04:07;8.27;;;2.90;;
78648;SDS011;67962;47.310;9.642;2023-04-21T06:06:33;4.63;;;2.60;;
78648;SDS011;67962;47.310;9.642;2023-04-21T06:08:58;4.28;;;2.90;;
78648;SDS011;67962;47.310;9.642;2023-04-21T06:11:24;4.15;;;2.70;;
78648;SDS011;67962;47.310;9.642;2023-04-21T06:13:50;3.80;;;2.78;;
78648;SDS011;67962;47.310;9.642;2023-04-21T06:16:18;4.32;;;2.47;;
78648;SDS011;67962;47.310;9.642;2023-04-21T06:18:44;4.30;;;2.30;;
78648;SDS011;67962;47.310;9.642;2023-04-21T06:21:10;3.85;;;2.63;;
78648;SDS011;67962;47.310;9.642;2023-04-21T06:23:35;3.25;;;2.03;;
78648;SDS011;67962;47.310;9.642;2023-04-21T06:26:02;3.17;;;1.98;;
78648;SDS011;67962;47.310;9.642;2023-04-21T06:28:32;3.42;;;2.20;;
78648;SDS011;67962;47.310;9.642;2023-04-21T06:30:59;3.90;;;2.17;;
78648;SDS011;67962;47.310;9.642;2023-04-21T06:33:25;4.18;;;1.92;;
78648;SDS011;67962;47.310;9.642;2023-04-21T06:35:52;2.67;;;1.75;;
78648;SDS011;67962;47.310;9.642;2023-04-21T06:38:18;4.28;;;1.77;;
78648;SDS011;67962;47.310;9.642;2023-04-21T06:40:44;1.73;;;1.40;;
78648;SDS011;67962;47.310;9.642;2023-04-21T06:43:10;2.70;;;1.85;;
78648;SDS011;67962;47.310;9.642;2023-04-21T06:45:35;7.82;;;1.98;;
78648;SDS011;67962;47.310;9.642;2023-04-21T06:48:01;3.72;;;1.65;;
78648;SDS011;67962;47.310;9.642;2023-04-21T06:50:27;4.05;;;1.70;;
78648;SDS011;67962;47.310;9.642;2023-04-21T06:52:52;3.75;;;2.10;;
78648;SDS011;67962;47.310;9.642;2023-04-21T06:55:18;4.03;;;2.08;;
78648;SDS011;67962;47.310;9.642;2023-04-21T06:57:44;3.72;;;1.90;;
78648;SDS011;67962;47.310;9.642;2023-04-21T07:00:10;2.90;;;1.75;;
78648;SDS011;67962;47.310;9.642;2023-04-21T07:02:36;2.65;;;1.70;;
78648;SDS011;67962;47.310;9.642;2023-04-21T07:05:02;1.88;;;1.60;;
78648;SDS011;67962;47.310;9.642;2023-04-21T07:07:28;1.65;;;1.20;;
78648;SDS011;67962;47.310;9.642;2023-04-21T07:09:53;2.95;;;1.30;;
78648;SDS011;67962;47.310;9.642;2023-04-21T07:12:19;2.17;;;1.27;;
78648;SDS011;67962;47.310;9.642;2023-04-21T07:14:45;2.78;;;1.40;;
78648;SDS011;67962;47.310;9.642;2023-04-21T07:17:11;1.35;;;1.10;;
78648;SDS011;67962;47.310;9.642;2023-04-21T07:19:37;2.08;;;1.40;;
78648;SDS011;67962;47.310;9.642;2023-04-21T07:22:03;2.42;;;1.40;;
78648;SDS011;67962;47.310;9.642;2023-04-21T07:24:29;2.33;;;1.45;;
78648;SDS011;67962;47.310;9.642;2023-04-21T07:26:55;2.05;;;1.45;;
78648;SDS011;67962;47.310;9.642;2023-04-21T07:29:21;3.53;;;1.60;;
78648;SDS011;67962;47.310;9.642;2023-04-21T07:31:47;4.25;;;2.00;;
78648;SDS011;67962;47.310;9.642;2023-04-21T07:34:13;2.35;;;1.67;;
78648;SDS011;67962;47.310;9.642;2023-04-21T07:36:39;3.60;;;1.73;;
78648;SDS011;67962;47.310;9.642;2023-04-21T07:39:05;2.45;;;1.65;;
78648;SDS011;67962;47.310;9.642;2023-04-21T07:41:30;2.13;;;1.40;;
78648;SDS011;67962;47.310;9.642;2023-04-21T07:43:56;2.90;;;1.30;;
78648;SDS011;67962;47.310;9.642;2023-04-21T07:46:22;1.90;;;1.20;;
78648;SDS011;67962;47.310;9.642;2023-04-21T07:48:54;2.60;;;1.73;;
78648;SDS011;67962;47.310;9.642;2023-04-21T07:51:20;2.70;;;1.52;;
78648;SDS011;67962;47.310;9.642;2023-04-21T07:53:47;2.30;;;1.48;;
78648;SDS011;67962;47.310;9.642;2023-04-21T07:56:12;2.40;;;1.83;;
78648;SDS011;67962;47.310;9.642;2023-04-21T07:58:38;4.40;;;1.77;;
78648;SDS011;67962;47.310;9.642;2023-04-21T08:01:04;2.78;;;1.80;;
78648;SDS011;67962;47.310;9.642;2023-04-21T08:03:30;3.25;;;1.88;;
78648;SDS011;67962;47.310;9.642;2023-04-21T08:05:55;2.63;;;1.80;;
78648;SDS011;67962;47.310;9.642;2023-04-21T08:08:21;3.45;;;1.73;;
78648;SDS011;67962;47.310;9.642;2023-04-21T08:10:47;2.53;;;1.90;;
78648;SDS011;67962;47.310;9.642;2023-04-21T08:13:12;2.55;;;1.60;;
78648;SDS011;67962;47.310;9.642;2023-04-21T08:15:38;2.03;;;1.50;;
78648;SDS011;67962;47.310;9.642;2023-04-21T08:18:05;2.40;;;1.42;;
78648;SDS011;67962;47.310;9.642;2023-04-21T08:20:31;7.03;;;1.90;;
78648;SDS011;67962;47.310;9.642;2023-04-21T08:22:57;3.00;;;1.50;;
78648;SDS011;67962;47.310;9.642;2023-04-21T08:25:23;1.73;;;1.20;;
78648;SDS011;67962;47.310;9.642;2023-04-21T08:27:49;1.42;;;1.10;;
78648;SDS011;67962;47.310;9.642;2023-04-21T08:30:14;1.35;;;1.13;;
78648;SDS011;67962;47.310;9.642;2023-04-21T08:32:40;2.35;;;1.00;;
78648;SDS011;67962;47.310;9.642;2023-04-21T08:35:06;1.63;;;1.13;;
78648;SDS011;67962;47.310;9.642;2023-04-21T08:37:34;1.40;;;0.95;;
78648;SDS011;67962;47.310;9.642;2023-04-21T08:40:01;1.48;;;0.98;;
78648;SDS011;67962;47.310;9.642;2023-04-21T08:42:28;1.20;;;0.98;;
78648;SDS011;67962;47.310;9.642;2023-04-21T08:44:54;2.15;;;1.05;;
78648;SDS011;67962;47.310;9.642;2023-04-21T08:47:20;1.25;;;1.00;;
78648;SDS011;67962;47.310;9.642;2023-04-21T08:49:48;3.05;;;1.20;;
78648;SDS011;67962;47.310;9.642;2023-04-21T08:52:16;1.77;;;1.00;;
78648;SDS011;67962;47.310;9.642;2023-04-21T08:54:42;1.30;;;1.13;;
78648;SDS011;67962;47.310;9.642;2023-04-21T08:57:08;2.08;;;0.90;;
78648;SDS011;67962;47.310;9.642;2023-04-21T08:59:34;1.25;;;0.85;;
78648;SDS011;67962;47.310;9.642;2023-04-21T09:02:10;1.33;;;0.73;;
78648;SDS011;67962;47.310;9.642;2023-04-21T09:04:38;1.20;;;0.70;;
78648;SDS011;67962;47.310;9.642;2023-04-21T09:07:11;0.93;;;0.70;;
78648;SDS011;67962;47.310;9.642;2023-04-21T09:09:53;1.35;;;0.80;;
78648;SDS011;67962;47.310;9.642;2023-04-21T09:12:20;1.48;;;0.80;;
78648;SDS011;67962;47.310;9.642;2023-04-21T09:14:46;1.08;;;0.70;;
78648;SDS011;67962;47.310;9.642;2023-04-21T09:17:13;0.73;;;0.60;;
78648;SDS011;67962;47.310;9.642;2023-04-21T09:19:40;0.68;;;0.50;;
78648;SDS011;67962;47.310;9.642;2023-04-21T09:22:06;0.50;;;0.45;;
78648;SDS011;67962;47.310;9.642;2023-04-21T09:24:32;1.40;;;0.70;;
78648;SDS011;67962;47.310;9.642;2023-04-21T09:26:58;2.35;;;0.60;;
78648;SDS011;67962;47.310;9.642;2023-04-21T09:29:28;1.10;;;0.70;;
78648;SDS011;67962;47.310;9.642;2023-04-21T09:31:53;1.00;;;0.60;;
78648;SDS011;67962;47.310;9.642;2023-04-21T09:34:23;1.23;;;0.60;;
78648;SDS011;67962;47.310;9.642;2023-04-21T09:36:59;1.15;;;0.50;;
78648;SDS011;67962;47.310;9.642;2023-04-21T09:39:27;0.90;;;0.70;;
78648;SDS011;67962;47.310;9.642;2023-04-21T09:41:57;1.17;;;0.60;;
78648;SDS011;67962;47.310;9.642;2023-04-21T09:44:23;0.70;;;0.47;;
78648;SDS011;67962;47.310;9.642;2023-04-21T09:46:50;0.50;;;0.50;;
78648;SDS011;67962;47.310;9.642;2023-04-21T09:49:31;0.95;;;0.50;;
78648;SDS011;67962;47.310;9.642;2023-04-21T09:52:00;1.17;;;0.60;;
78648;SDS011;67962;47.310;9.642;2023-04-21T09:54:30;2.20;;;0.50;;
78648;SDS011;67962;47.310;9.642;2023-04-21T09:56:57;0.50;;;0.40;;
78648;SDS011;67962;47.310;9.642;2023-04-21T09:59:29;0.88;;;0.60;;
78648;SDS011;67962;47.310;9.642;2023-04-21T10:02:06;3.53;;;0.60;;
78648;SDS011;67962;47.310;9.642;2023-04-21T10:04:33;0.32;;;0.30;;
78648;SDS011;67962;47.310;9.642;2023-04-21T10:07:01;1.00;;;0.60;;
78648;SDS011;67962;47.310;9.642;2023-04-21T10:09:32;0.77;;;0.55;;
78648;SDS011;67962;47.310;9.642;2023-04-21T10:12:04;0.75;;;0.50;;
78648;SDS011;67962;47.310;9.642;2023-04-21T10:14:31;1.73;;;0.63;;
78648;SDS011;67962;47.310;9.642;2023-04-21T10:17:07;1.27;;;0.55;;
78648;SDS011;67962;47.310;9.642;2023-04-21T10:19:34;0.57;;;0.50;;
78648;SDS011;67962;47.310;9.642;2023-04-21T10:22:06;0.57;;;0.52;;
78648;SDS011;67962;47.310;9.642;2023-04-21T10:24:37;0.50;;;0.40;;
78648;SDS011;67962;47.310;9.642;2023-04-21T10:27:04;0.63;;;0.50;;
78648;SDS011;67962;47.310;9.642;2023-04-21T10:29:31;0.47;;;0.47;;
78648;SDS011;67962;47.310;9.642;2023-04-21T10:31:58;2.10;;;0.60;;
78648;SDS011;67962;47.310;9.642;2023-04-21T10:39:28;0.98;;;0.70;;
78648;SDS011;67962;47.310;9.642;2023-04-21T10:41:57;2.05;;;0.47;;
78648;SDS011;67962;47.310;9.642;2023-04-21T10:47:26;4.05;;;0.60;;
78648;SDS011;67962;47.310;9.642;2023-04-21T10:49:54;0.68;;;0.47;;
78648;SDS011;67962;47.310;9.642;2023-04-21T10:52:20;0.70;;;0.57;;
78648;SDS011;67962;47.310;9.642;2023-04-21T10:57:13;1.05;;;0.43;;
78648;SDS011;67962;47.310;9.642;2023-04-21T10:59:40;1.13;;;0.43;;
78648;SDS011;67962;47.310;9.642;2023-04-21T11:02:06;2.13;;;0.60;;
78648;SDS011;67962;47.310;9.642;2023-04-21T11:04:34;1.00;;;0.57;;
78648;SDS011;67962;47.310;9.642;2023-04-21T11:07:04;0.60;;;0.60;;
78648;SDS011;67962;47.310;9.642;2023-04-21T11:09:38;0.68;;;0.50;;
78648;SDS011;67962;47.310;9.642;2023-04-21T11:12:05;0.80;;;0.50;;
78648;SDS011;67962;47.310;9.642;2023-04-21T11:14:33;0.40;;;0.40;;
78648;SDS011;67962;47.310;9.642;2023-04-21T11:17:01;0.95;;;0.50;;
78648;SDS011;67962;47.310;9.642;2023-04-21T11:19:27;0.68;;;0.50;;
78648;SDS011;67962;47.310;9.642;2023-04-21T11:21:55;1.05;;;0.45;;
78648;SDS011;67962;47.310;9.642;2023-04-21T11:24:21;0.63;;;0.45;;
78648;SDS011;67962;47.310;9.642;2023-04-21T11:26:47;0.50;;;0.40;;
78648;SDS011;67962;47.310;9.642;2023-04-21T11:29:13;0.40;;;0.40;;
78648;SDS011;67962;47.310;9.642;2023-04-21T11:31:40;0.55;;;0.40;;
78648;SDS011;67962;47.310;9.642;2023-04-21T11:34:08;0.40;;;0.40;;
78648;SDS011;67962;47.310;9.642;2023-04-21T11:36:40;0.85;;;0.40;;
78648;SDS011;67962;47.310;9.642;2023-04-21T11:39:08;0.45;;;0.40;;
78648;SDS011;67962;47.310;9.642;2023-04-21T11:41:38;0.60;;;0.30;;
78648;SDS011;67962;47.310;9.642;2023-04-21T11:44:08;0.88;;;0.50;;
78648;SDS011;67962;47.310;9.642;2023-04-21T11:46:35;0.70;;;0.50;;
78648;SDS011;67962;47.310;9.642;2023-04-21T11:49:05;1.20;;;0.30;;
78648;SDS011;67962;47.310;9.642;2023-04-21T11:51:43;0.50;;;0.30;;
78648;SDS011;67962;47.310;9.642;2023-04-21T11:54:11;0.55;;;0.40;;
78648;SDS011;67962;47.310;9.642;2023-04-21T11:59:08;0.60;;;0.40;;
78648;SDS011;67962;47.310;9.642;2023-04-21T12:01:41;0.47;;;0.40;;
78648;SDS011;67962;47.310;9.642;2023-04-21T12:04:15;0.30;;;0.20;;
78648;SDS011;67962;47.310;9.642;2023-04-21T12:06:42;0.38;;;0.30;;
78648;SDS011;67962;47.310;9.642;2023-04-21T12:09:19;0.80;;;0.30;;
78648;SDS011;67962;47.310;9.642;2023-04-21T12:11:48;0.30;;;0.30;;
78648;SDS011;67962;47.310;9.642;2023-04-21T12:14:19;0.60;;;0.30;;
78648;SDS011;67962;47.310;9.642;2023-04-21T12:16:47;0.45;;;0.30;;
78648;SDS011;67962;47.310;9.642;2023-04-21T12:19:21;0.32;;;0.30;;
78648;SDS011;67962;47.310;9.642;2023-04-21T12:21:59;0.20;;;0.20;;
78648;SDS011;67962;47.310;9.642;2023-04-21T12:24:25;0.52;;;0.30;;
78648;SDS011;67962;47.310;9.642;2023-04-21T12:26:51;0.40;;;0.30;;
78648;SDS011;67962;47.310;9.642;2023-04-21T12:29:16;0.20;;;0.20;;
78648;SDS011;67962;47.310;9.642;2023-04-21T12:31:42;0.30;;;0.20;;
78648;SDS011;67962;47.310;9.642;2023-04-21T12:34:08;0.85;;;0.50;;
78648;SDS011;67962;47.310;9.642;2023-04-21T12:36:34;0.40;;;0.30;;
78648;SDS011;67962;47.310;9.642;2023-04-21T12:39:00;0.40;;;0.30;;
78648;SDS011;67962;47.310;9.642;2023-04-21T12:41:26;0.65;;;0.60;;
78648;SDS011;67962;47.310;9.642;2023-04-21T12:43:51;0.30;;;0.20;;
78648;SDS011;67962;47.310;9.642;2023-04-21T12:46:17;0.70;;;0.30;;
78648;SDS011;67962;47.310;9.642;2023-04-21T12:52:45;0.35;;;0.30;;
78648;SDS011;67962;47.310;9.642;2023-04-21T12:55:12;0.30;;;0.30;;
78648;SDS011;67962;47.310;9.642;2023-04-21T12:57:38;0.40;;;0.30;;
78648;SDS011;67962;47.310;9.642;2023-04-21T13:00:04;0.47;;;0.30;;
78648;SDS011;67962;47.310;9.642;2023-04-21T13:02:32;0.80;;;0.30;;
78648;SDS011;67962;47.310;9.642;2023-04-21T13:05:01;0.40;;;0.32;;
78648;SDS011;67962;47.310;9.642;2023-04-21T13:07:28;0.55;;;0.30;;
78648;SDS011;67962;47.310;9.642;2023-04-21T13:09:55;3.00;;;0.45;;
78648;SDS011;67962;47.310;9.642;2023-04-21T13:12:21;0.38;;;0.30;;
78648;SDS011;67962;47.310;9.642;2023-04-21T13:14:47;0.30;;;0.30;;
78648;SDS011;67962;47.310;9.642;2023-04-21T13:17:13;0.82;;;0.20;;
78648;SDS011;67962;47.310;9.642;2023-04-21T13:19:40;0.32;;;0.30;;
78648;SDS011;67962;47.310;9.642;2023-04-21T13:22:05;0.35;;;0.30;;
78648;SDS011;67962;47.310;9.642;2023-04-21T13:24:31;0.88;;;0.40;;
78648;SDS011;67962;47.310;9.642;2023-04-21T13:26:57;2.63;;;1.00;;
78648;SDS011;67962;47.310;9.642;2023-04-21T13:29:25;2.22;;;0.60;;
78648;SDS011;67962;47.310;9.642;2023-04-21T13:31:57;1.10;;;0.30;;
78648;SDS011;67962;47.310;9.642;2023-04-21T13:34:28;0.60;;;0.30;;
78648;SDS011;67962;47.310;9.642;2023-04-21T13:36:54;2.30;;;0.30;;
78648;SDS011;67962;47.310;9.642;2023-04-21T13:39:20;0.88;;;0.50;;
78648;SDS011;67962;47.310;9.642;2023-04-21T13:41:45;1.88;;;0.70;;
78648;SDS011;67962;47.310;9.642;2023-04-21T13:44:12;0.70;;;0.30;;
78648;SDS011;67962;47.310;9.642;2023-04-21T13:46:37;0.73;;;0.20;;
78648;SDS011;67962;47.310;9.642;2023-04-21T13:49:03;2.17;;;0.70;;
78648;SDS011;67962;47.310;9.642;2023-04-21T13:51:30;0.47;;;0.40;;
78648;SDS011;67962;47.310;9.642;2023-04-21T13:53:56;0.75;;;0.40;;
78648;SDS011;67962;47.310;9.642;2023-04-21T13:56:22;2.17;;;0.73;;
78648;SDS011;67962;47.310;9.642;2023-04-21T13:58:48;0.98;;;0.40;;
78648;SDS011;67962;47.310;9.642;2023-04-21T14:01:13;6.82;;;0.93;;
78648;SDS011;67962;47.310;9.642;2023-04-21T14:03:40;0.93;;;0.50;;
78648;SDS011;67962;47.310;9.642;2023-04-21T14:06:06;1.55;;;0.50;;
78648;SDS011;67962;47.310;9.642;2023-04-21T14:08:32;0.32;;;0.30;;
78648;SDS011;67962;47.310;9.642;2023-04-21T14:10:58;0.45;;;0.40;;
78648;SDS011;67962;47.310;9.642;2023-04-21T14:13:24;0.70;;;0.40;;
78648;SDS011;67962;47.310;9.642;2023-04-21T14:15:53;3.08;;;0.50;;
78648;SDS011;67962;47.310;9.642;2023-04-21T14:18:19;1.58;;;0.45;;
78648;SDS011;67962;47.310;9.642;2023-04-21T14:20:45;0.57;;;0.30;;
78648;SDS011;67962;47.310;9.642;2023-04-21T14:23:11;0.52;;;0.40;;
78648;SDS011;67962;47.310;9.642;2023-04-21T14:25:36;0.63;;;0.30;;
78648;SDS011;67962;47.310;9.642;2023-04-21T14:28:02;3.25;;;0.32;;
78648;SDS011;67962;47.310;9.642;2023-04-21T14:30:31;1.45;;;0.50;;
78648;SDS011;67962;47.310;9.642;2023-04-21T14:32:59;0.98;;;0.35;;
78648;SDS011;67962;47.310;9.642;2023-04-21T14:35:24;0.80;;;0.40;;
78648;SDS011;67962;47.310;9.642;2023-04-21T14:37:50;0.50;;;0.30;;
78648;SDS011;67962;47.310;9.642;2023-04-21T14:40:16;0.20;;;0.20;;
78648;SDS011;67962;47.310;9.642;2023-04-21T14:42:41;2.63;;;0.50;;
78648;SDS011;67962;47.310;9.642;2023-04-21T14:45:07;0.30;;;0.30;;
78648;SDS011;67962;47.310;9.642;2023-04-21T14:47:34;0.77;;;0.40;;
78648;SDS011;67962;47.310;9.642;2023-04-21T14:50:01;1.70;;;0.32;;
78648;SDS011;67962;47.310;9.642;2023-04-21T14:52:28;0.30;;;0.22;;
78648;SDS011;67962;47.310;9.642;2023-04-21T14:54:54;0.50;;;0.43;;
78648;SDS011;67962;47.310;9.642;2023-04-21T14:57:19;0.77;;;0.38;;
78648;SDS011;67962;47.310;9.642;2023-04-21T14:59:49;0.55;;;0.40;;
78648;SDS011;67962;47.310;9.642;2023-04-21T15:02:15;0.55;;;0.30;;